Time;durP1;ratioP1;P1;durP2;ratioP2;P2;SDS_P1;SDS_P2;PMS_P1;PMS_P2;Temp;Humidity;BMP_temperature;BMP_pressure;BME280_temperature;BME280_humidity;BME280_pressure;Samples;Min_cycle;Max_cycle;Signal;HPM_P1;HPM_P2
2022/10/26 00:01:24;;;;;;;;;;;;;;;13.94;73.82;100899.59;5295058;32;37060;-84
2022/10/26 00:04:26;;;;;;;;;;;;;;;14.74;70.03;100908.22;5307140;32;35384;-81
2022/10/26 00:07:28;;;;;;;;;;;;;;;15.30;67.39;100903.72;5316572;32;34924;-80
2022/10/26 00:10:30;;;;;;;;;;;;;;;14.14;71.74;100914.56;5293046;33;34209;-80
2022/10/26 00:13:34;;;;;;;;;;;;;;;14.27;71.36;100913.06;5319098;32;37010;-79
2022/10/26 00:16:36;;;;;;;;;;;;;;;15.04;68.57;100908.53;5307878;32;34370;-79
2022/10/26 00:19:38;;;;;;;;;;;;;;;15.63;65.28;100919.72;5300408;33;34245;-84
2022/10/26 00:22:40;;;;;;;;;;;;;;;14.69;68.75;100920.84;5317787;33;44582;-79
2022/10/26 00:25:42;;;;;;;;;;;;;;;15.13;67.62;100920.44;5292301;32;34918;-79
2022/10/26 00:28:44;;;;;;;;;;;;;;;14.40;70.09;100918.66;5315590;32;38031;-79
2022/10/26 00:31:46;;;;;;;;;;;;;;;14.41;70.67;100915.06;5304026;33;35325;-79
2022/10/26 00:34:47;;;;;;;;;;;;;;;14.60;69.84;100914.16;5318007;32;34781;-84
2022/10/26 00:37:53;;;;;;;;;;;;;;;13.99;72.42;100916.13;5298648;32;35507;-84
2022/10/26 00:40:55;;;;;;;;;;;;;;;14.22;71.39;100915.06;5307932;32;36216;-85
2022/10/26 00:44:21;;;;;;;;;;;;;;;14.25;71.61;100914.94;5320306;32;35088;-80
2022/10/26 00:47:29;;;;;;;;;;;;;;;14.59;69.60;100915.09;5290963;33;35512;-85
2022/10/26 00:50:36;;;;;;;;;;;;;;;14.20;72.23;100911.66;5307577;33;34258;-84
2022/10/26 00:53:38;;;;;;;;;;;;;;;13.81;73.47;100920.44;5305046;32;35555;-85
2022/10/26 00:56:41;;;;;;;;;;;;;;;13.86;72.88;100904.38;5303722;32;44875;-84
2022/10/26 00:59:43;;;;;;;;;;;;;;;14.26;71.57;100906.94;5319930;33;34809;-84
2022/10/26 01:02:45;;;;;;;;;;;;;;;14.31;70.59;100907.59;5303595;32;32938;-84
2022/10/26 01:05:48;;;;;;;;;;;;;;;13.85;72.13;100905.28;5319985;32;34812;-84
2022/10/26 01:08:50;;;;;;;;;;;;;;;13.79;72.38;100917.00;5305655;32;34591;-84
2022/10/26 01:11:51;;;;;;;;;;;;;;;13.77;73.75;100916.19;5305059;33;35132;-79
2022/10/26 01:14:53;;;;;;;;;;;;;;;14.32;70.84;100908.44;5307931;33;35502;-80
2022/10/26 01:17:56;;;;;;;;;;;;;;;14.49;70.07;100908.56;5279286;33;35898;-84
2022/10/26 01:21:01;;;;;;;;;;;;;;;14.08;71.37;100910.41;5307106;33;34993;-84
2022/10/26 01:24:09;;;;;;;;;;;;;;;13.64;72.85;100900.03;5305001;33;34679;-80
2022/10/26 01:27:29;;;;;;;;;;;;;;;13.06;75.92;100918.28;5296101;33;45141;-85
2022/10/26 01:30:44;;;;;;;;;;;;;;;13.69;73.53;100910.41;5301804;33;34194;-84
2022/10/26 01:33:50;;;;;;;;;;;;;;;13.73;73.41;100904.06;5301021;32;43258;-80
2022/10/26 01:36:54;;;;;;;;;;;;;;;14.42;70.25;100904.41;5313887;33;34825;-82
2022/10/26 01:40:01;;;;;;;;;;;;;;;13.73;72.51;100906.72;5302618;32;35197;-84
2022/10/26 01:43:04;;;;;;;;;;;;;;;13.58;73.80;100902.94;5318319;33;34265;-84
2022/10/26 01:46:06;;;;;;;;;;;;;;;13.64;73.31;100904.44;5280552;33;35416;-79
2022/10/26 01:49:09;;;;;;;;;;;;;;;13.69;73.45;100898.06;5315021;33;34652;-78
2022/10/26 01:52:11;;;;;;;;;;;;;;;13.78;73.23;100897.66;5293655;33;45200;-79
2022/10/26 01:55:31;;;;;;;;;;;;;;;13.88;72.48;100897.25;5305390;33;36455;-79
2022/10/26 01:58:43;;;;;;;;;;;;;;;13.99;72.09;100890.56;5319722;32;35525;-79
2022/10/26 02:01:48;;;;;;;;;;;;;;;13.61;73.12;100894.03;5302697;33;46653;-78
2022/10/26 02:05:09;;;;;;;;;;;;;;;13.24;75.17;100890.31;5318512;33;35069;-79
2022/10/26 02:08:30;;;;;;;;;;;;;;;13.66;73.53;100899.97;5311651;32;44775;-84
2022/10/26 02:11:37;;;;;;;;;;;;;;;13.25;74.40;100900.81;5305238;32;34607;-84
2022/10/26 02:14:45;;;;;;;;;;;;;;;13.20;75.58;100897.53;5317913;32;42947;-84
2022/10/26 02:17:49;;;;;;;;;;;;;;;13.47;73.86;100894.63;5291251;33;32901;-79
2022/10/26 02:20:52;;;;;;;;;;;;;;;12.72;77.19;100887.16;5304523;33;34810;-79
2022/10/26 02:23:54;;;;;;;;;;;;;;;13.11;75.50;100889.09;5305608;32;35559;-78
2022/10/26 02:26:56;;;;;;;;;;;;;;;12.93;76.69;100894.19;5268217;33;35490;-79
2022/10/26 02:29:58;;;;;;;;;;;;;;;13.65;73.62;100885.03;5308515;33;34461;-80
2022/10/26 02:33:00;;;;;;;;;;;;;;;13.46;73.51;100888.50;5304844;32;35281;-85
2022/10/26 02:36:03;;;;;;;;;;;;;;;13.60;73.07;100890.53;5319512;32;34577;-83
2022/10/26 02:39:05;;;;;;;;;;;;;;;13.27;74.02;100891.06;5290547;32;34412;-84
2022/10/26 02:42:06;;;;;;;;;;;;;;;12.83;76.78;100902.56;5302917;32;35414;-84
2022/10/26 02:45:09;;;;;;;;;;;;;;;13.63;72.51;100895.69;5297214;32;45183;-80
2022/10/26 02:48:11;;;;;;;;;;;;;;;12.96;75.59;100904.63;5277202;32;34394;-85
2022/10/26 02:51:15;;;;;;;;;;;;;;;12.92;76.03;100903.03;5307736;32;34892;-85
2022/10/26 02:54:23;;;;;;;;;;;;;;;13.27;74.80;100904.25;5295502;32;34942;-80
2022/10/26 02:57:38;;;;;;;;;;;;;;;12.98;75.86;100913.34;5321155;32;34828;-85
2022/10/26 03:00:41;;;;;;;;;;;;;;;13.05;75.86;100915.72;5280668;33;45377;-84
2022/10/26 03:03:43;;;;;;;;;;;;;;;12.94;76.63;100911.72;5316192;32;34465;-80
2022/10/26 03:06:52;;;;;;;;;;;;;;;13.38;74.58;100906.44;5320627;32;35985;-84
2022/10/26 03:09:54;;;;;;;;;;;;;;;12.67;76.75;100912.84;5306397;32;35502;-84
2022/10/26 03:12:56;;;;;;;;;;;;;;;12.69;76.94;100919.78;5320723;32;34627;-78
2022/10/26 03:15:58;;;;;;;;;;;;;;;12.56;77.85;100922.94;5291979;32;34967;-84
2022/10/26 03:18:59;;;;;;;;;;;;;;;12.68;77.08;100927.75;5320324;32;34387;-84
2022/10/26 03:22:01;;;;;;;;;;;;;;;12.56;77.29;100937.00;5305648;32;34425;-83
2022/10/26 03:25:03;;;;;;;;;;;;;;;12.71;76.79;100936.41;5285231;33;34360;-79
2022/10/26 03:28:06;;;;;;;;;;;;;;;13.49;73.27;100933.25;5297122;32;35452;-84
2022/10/26 03:31:08;;;;;;;;;;;;;;;13.91;71.02;100931.44;5283718;32;35847;-79
2022/10/26 03:34:09;;;;;;;;;;;;;;;14.29;69.39;100930.56;5320805;32;44422;-83
2022/10/26 03:37:11;;;;;;;;;;;;;;;13.66;71.10;100924.63;5299873;32;35841;-84
2022/10/26 03:40:13;;;;;;;;;;;;;;;13.70;71.33;100934.09;5319449;32;35985;-79
2022/10/26 03:43:15;;;;;;;;;;;;;;;14.57;67.37;100927.56;5305277;32;35933;-80
2022/10/26 03:46:17;;;;;;;;;;;;;;;14.18;67.93;100939.94;5293401;33;34562;-80
2022/10/26 03:49:19;;;;;;;;;;;;;;;14.38;67.78;100929.31;5326050;32;36281;-83
2022/10/26 03:52:23;;;;;;;;;;;;;;;13.78;70.28;100941.69;5304142;32;35967;-83
2022/10/26 03:55:24;;;;;;;;;;;;;;;13.89;69.89;100934.16;5318798;33;34811;-79
2022/10/26 03:58:26;;;;;;;;;;;;;;;14.30;68.61;100944.69;5306241;32;35401;-84
2022/10/26 04:01:28;;;;;;;;;;;;;;;13.88;69.61;100955.37;5294442;32;33707;-85
2022/10/26 04:04:30;;;;;;;;;;;;;;;13.19;73.39;100952.97;5307243;32;35452;-81
2022/10/26 04:07:32;;;;;;;;;;;;;;;13.50;72.84;100957.88;5304957;32;35553;-85
2022/10/26 04:10:34;;;;;;;;;;;;;;;14.12;70.19;100941.06;5308200;33;33255;-83
2022/10/26 04:13:36;;;;;;;;;;;;;;;13.61;71.53;100950.34;5308253;32;34284;-84
2022/10/26 04:16:38;;;;;;;;;;;;;;;13.79;70.90;100952.22;5320814;32;34836;-80
2022/10/26 04:19:39;;;;;;;;;;;;;;;13.35;72.60;100956.72;5302831;32;44948;-79
2022/10/26 04:22:41;;;;;;;;;;;;;;;13.51;72.13;100956.94;5318460;32;35123;-85
2022/10/26 04:25:43;;;;;;;;;;;;;;;13.53;72.06;100952.47;5291038;33;34251;-79
2022/10/26 04:28:45;;;;;;;;;;;;;;;13.29;72.68;100962.25;5297344;32;34944;-85
2022/10/26 04:31:47;;;;;;;;;;;;;;;13.48;72.87;100957.94;5319908;32;35406;-84
2022/10/26 04:34:49;;;;;;;;;;;;;;;13.91;70.75;100960.50;5301682;32;34476;-80
2022/10/26 04:37:55;;;;;;;;;;;;;;;13.46;71.31;100958.91;5315761;32;35586;-82
2022/10/26 04:40:57;;;;;;;;;;;;;;;14.27;68.33;100944.81;5279941;32;35767;-79
2022/10/26 04:43:59;;;;;;;;;;;;;;;14.46;67.19;100947.47;5318264;32;34175;-85
2022/10/26 04:47:01;;;;;;;;;;;;;;;13.90;69.41;100953.50;5308324;33;34671;-79
2022/10/26 04:50:03;;;;;;;;;;;;;;;14.38;67.05;100952.25;5306612;33;36843;-85
2022/10/26 04:53:08;;;;;;;;;;;;;;;13.63;69.68;100958.22;5319480;32;35466;-84
2022/10/26 04:56:10;;;;;;;;;;;;;;;13.51;70.18;100957.78;5290020;32;44715;-84
2022/10/26 04:59:12;;;;;;;;;;;;;;;13.87;68.77;100951.87;5321013;32;35474;-78
2022/10/26 05:02:14;;;;;;;;;;;;;;;13.12;70.92;100956.78;5301699;32;34518;-87
2022/10/26 05:05:16;;;;;;;;;;;;;;;13.38;71.26;100955.72;5314366;33;32489;-85
2022/10/26 05:08:18;;;;;;;;;;;;;;;13.52;70.08;100959.53;5309992;33;34373;-85
2022/10/26 05:11:20;;;;;;;;;;;;;;;13.82;68.55;100948.56;5305390;32;34334;-89
2022/10/26 05:14:22;;;;;;;;;;;;;;;13.64;69.26;100957.28;5305846;33;34654;-83
2022/10/26 05:17:25;;;;;;;;;;;;;;;13.91;67.27;100958.75;5303607;33;34333;-81
2022/10/26 05:20:30;;;;;;;;;;;;;;;14.16;65.94;100947.06;5294630;32;35298;-79
2022/10/26 05:23:32;;;;;;;;;;;;;;;14.38;65.00;100957.53;5289215;32;34293;-83
2022/10/26 05:26:33;;;;;;;;;;;;;;;14.15;65.67;100969.16;5286999;32;35339;-81
2022/10/26 05:29:35;;;;;;;;;;;;;;;14.17;64.91;100981.38;5300307;33;35618;-87
2022/10/26 05:32:37;;;;;;;;;;;;;;;13.74;66.55;100979.75;5298866;32;33849;-81
2022/10/26 05:35:39;;;;;;;;;;;;;;;13.92;65.91;100981.59;5317220;32;45172;-84
2022/10/26 05:38:41;;;;;;;;;;;;;;;13.96;66.08;100983.16;5298375;32;34317;-82
2022/10/26 05:41:43;;;;;;;;;;;;;;;13.59;67.08;100972.44;5317858;33;35475;-82
2022/10/26 05:44:45;;;;;;;;;;;;;;;13.91;66.73;100985.19;5299562;32;34440;-84
2022/10/26 05:47:47;;;;;;;;;;;;;;;13.79;67.18;100989.19;5307829;32;34052;-84
2022/10/26 05:50:49;;;;;;;;;;;;;;;13.94;66.58;100985.03;5306809;32;34496;-88
2022/10/26 05:53:54;;;;;;;;;;;;;;;14.00;66.64;100984.75;5301828;32;34467;-79
2022/10/26 05:56:57;;;;;;;;;;;;;;;14.00;66.55;100982.13;5319613;32;35557;-89
2022/10/26 05:59:59;;;;;;;;;;;;;;;13.82;67.42;100993.47;5319658;32;33234;-86
2022/10/26 06:03:20;;;;;;;;;;;;;;;14.18;66.09;100998.09;5318824;32;34111;-77
2022/10/26 06:06:22;;;;;;;;;;;;;;;13.88;68.15;101000.28;5309533;32;35062;-77
2022/10/26 06:09:24;;;;;;;;;;;;;;;14.39;67.26;100989.19;5305694;32;35171;-82
2022/10/26 06:12:26;;;;;;;;;;;;;;;15.49;62.62;100997.22;5294109;32;34624;-91
2022/10/26 06:15:28;;;;;;;;;;;;;;;16.09;59.88;100995.03;5320687;32;34734;-90
2022/10/26 06:18:35;;;;;;;;;;;;;;;17.11;56.87;100999.25;5309700;32;34338;-91
2022/10/26 06:21:55;;;;;;;;;;;;;;;16.47;57.83;101005.41;5309474;32;35087;-88
2022/10/26 06:25:06;;;;;;;;;;;;;;;17.67;54.24;101008.41;5311924;32;34803;-91
2022/10/26 06:28:20;;;;;;;;;;;;;;;18.50;51.92;101004.28;5310758;32;35770;-79
2022/10/26 06:31:22;;;;;;;;;;;;;;;19.15;49.57;101003.75;5308236;32;34480;-80
2022/10/26 06:34:26;;;;;;;;;;;;;;;19.26;49.27;101003.91;5319692;32;34254;-82
2022/10/26 06:37:28;;;;;;;;;;;;;;;19.48;48.57;101004.19;5291521;32;34326;-87
2022/10/26 06:40:31;;;;;;;;;;;;;;;17.14;55.92;101006.22;5329003;32;34749;-78
2022/10/26 06:43:33;;;;;;;;;;;;;;;17.51;54.92;101007.59;5306596;32;36295;-86
2022/10/26 06:46:40;;;;;;;;;;;;;;;19.04;49.72;101000.91;5305005;32;34168;-79
2022/10/26 06:49:56;;;;;;;;;;;;;;;19.31;49.61;101007.09;5321430;32;45829;-76
2022/10/26 06:53:12;;;;;;;;;;;;;;;20.13;47.69;101005.19;5295320;32;34236;-77
2022/10/26 06:56:14;;;;;;;;;;;;;;;18.42;52.34;101022.56;5319295;32;42993;-82
2022/10/26 06:59:27;;;;;;;;;;;;;;;17.79;53.67;101021.03;5303775;32;35868;-77
2022/10/26 07:02:32;;;;;;;;;;;;;;;18.93;50.04;101023.78;5309415;32;34349;-90
2022/10/26 07:05:34;;;;;;;;;;;;;;;17.53;53.59;101037.59;5327141;32;34543;-79
2022/10/26 07:08:36;;;;;;;;;;;;;;;19.41;48.51;101023.34;5301686;32;34832;-76
2022/10/26 07:11:40;;;;;;;;;;;;;;;18.99;48.82;101026.97;5312412;32;45885;-78
2022/10/26 07:14:42;;;;;;;;;;;;;;;18.48;50.44;101026.63;5308174;32;35175;-78
2022/10/26 07:17:47;;;;;;;;;;;;;;;17.99;50.87;101027.81;5315991;32;34684;-77
2022/10/26 07:20:50;;;;;;;;;;;;;;;16.33;57.16;101029.19;5319820;32;34435;-80
2022/10/26 07:23:54;;;;;;;;;;;;;;;14.73;63.68;101033.50;5311763;32;35606;-89
2022/10/26 07:26:57;;;;;;;;;;;;;;;15.29;61.97;101037.94;5305970;32;35282;-75
2022/10/26 07:29:59;;;;;;;;;;;;;;;14.96;62.96;101040.41;5312788;32;34261;-84
2022/10/26 07:33:02;;;;;;;;;;;;;;;15.23;62.76;101043.53;5320652;32;34633;-84
2022/10/26 07:36:04;;;;;;;;;;;;;;;14.56;64.46;101041.38;5310054;32;35334;-75
2022/10/26 07:39:06;;;;;;;;;;;;;;;14.81;63.80;101046.38;5314249;32;34524;-79
2022/10/26 07:42:08;;;;;;;;;;;;;;;15.22;62.35;101036.50;5303251;32;34745;-77
2022/10/26 07:45:11;;;;;;;;;;;;;;;14.59;65.32;101052.66;5296571;32;44375;-91
2022/10/26 07:48:13;;;;;;;;;;;;;;;14.36;66.11;101051.03;5328754;32;34125;-85
2022/10/26 07:51:17;;;;;;;;;;;;;;;15.01;63.97;101040.19;5291007;32;34260;-80
2022/10/26 07:54:19;;;;;;;;;;;;;;;16.30;58.67;101039.97;5320904;32;34895;-78
2022/10/26 07:57:21;;;;;;;;;;;;;;;14.58;64.94;101050.94;5311597;32;34245;-75
2022/10/26 08:00:24;;;;;;;;;;;;;;;15.69;61.15;101047.44;5314417;32;34273;-78
2022/10/26 08:03:26;;;;;;;;;;;;;;;15.44;61.83;101045.12;5317654;32;34488;-79
2022/10/26 08:06:28;;;;;;;;;;;;;;;15.15;62.79;101041.25;5302850;32;34347;-80
2022/10/26 08:09:30;;;;;;;;;;;;;;;14.75;64.15;101044.91;5318236;32;35673;-84
2022/10/26 08:12:32;;;;;;;;;;;;;;;14.28;67.41;101037.25;5303756;32;35431;-83
2022/10/26 08:15:35;;;;;;;;;;;;;;;14.74;66.38;101039.66;5322740;32;34184;-85
2022/10/26 08:18:37;;;;;;;;;;;;;;;14.58;66.28;101034.22;5281260;32;34199;-83
2022/10/26 08:21:39;;;;;;;;;;;;;;;15.07;65.49;101035.47;5314936;32;44652;-76
2022/10/26 08:24:45;;;;;;;;;;;;;;;16.45;60.77;101033.84;5307898;32;34390;-74
2022/10/26 08:27:49;;;;;;;;;;;;;;;16.41;60.99;101030.47;5292611;32;35751;-76
2022/10/26 08:30:51;;;;;;;;;;;;;;;16.19;61.65;101037.88;5310449;32;34524;-75
2022/10/26 08:33:53;;;;;;;;;;;;;;;16.13;61.47;101043.47;5294596;32;34365;-72
2022/10/26 08:36:55;;;;;;;;;;;;;;;15.56;63.92;101043.66;5319376;32;34419;-75
2022/10/26 08:39:57;;;;;;;;;;;;;;;15.53;64.83;101050.91;5309270;32;35580;-78
2022/10/26 08:43:24;;;;;;;;;;;;;;;15.10;66.48;101051.19;5315536;32;33870;-84
2022/10/26 08:46:33;;;;;;;;;;;;;;;14.38;69.99;101058.03;5307811;32;35476;-74
2022/10/26 08:49:40;;;;;;;;;;;;;;;14.78;68.35;101051.84;5301960;32;34389;-82
2022/10/26 08:53:03;;;;;;;;;;;;;;;14.52;69.11;101053.00;5309440;32;44500;-75
2022/10/26 08:56:08;;;;;;;;;;;;;;;14.92;67.47;101049.41;5309998;32;36453;-77
2022/10/26 08:59:17;;;;;;;;;;;;;;;15.23;66.04;101054.09;5315134;32;44921;-82
2022/10/26 09:02:19;;;;;;;;;;;;;;;15.18;66.42;101056.12;5325199;32;34283;-87
2022/10/26 09:05:21;;;;;;;;;;;;;;;14.75;67.78;101065.19;5285186;32;34219;-75
2022/10/26 09:08:31;;;;;;;;;;;;;;;16.11;63.14;101059.47;5296106;32;35588;-75
2022/10/26 09:11:42;;;;;;;;;;;;;;;15.68;64.64;101071.37;5295176;32;34461;-83
2022/10/26 09:14:47;;;;;;;;;;;;;;;15.82;64.41;101063.59;5301806;32;44700;-78
2022/10/26 09:18:08;;;;;;;;;;;;;;;15.49;66.39;101059.94;5297917;32;34287;-80
2022/10/26 09:21:29;;;;;;;;;;;;;;;15.30;67.51;101066.12;5301499;32;44460;-77
2022/10/26 09:24:32;;;;;;;;;;;;;;;15.82;66.54;101068.91;5315273;32;34217;-79
2022/10/26 09:27:41;;;;;;;;;;;;;;;16.18;65.70;101058.22;5282070;32;37466;-84
2022/10/26 09:30:44;;;;;;;;;;;;;;;16.51;63.24;101068.00;5300740;32;43889;-76
2022/10/26 09:33:46;;;;;;;;;;;;;;;16.44;64.30;101075.44;5320343;32;34152;-78
2022/10/26 09:36:50;;;;;;;;;;;;;;;17.73;59.75;101077.22;5294376;32;33656;-82
2022/10/26 09:40:09;;;;;;;;;;;;;;;17.31;61.05;101070.69;5322727;32;34241;-81
2022/10/26 09:43:13;;;;;;;;;;;;;;;17.26;61.59;101085.19;5303025;32;43325;-82
2022/10/26 09:46:17;;;;;;;;;;;;;;;17.05;62.67;101079.25;5296493;32;36319;-84
2022/10/26 09:49:19;;;;;;;;;;;;;;;17.10;63.07;101076.38;5313335;32;34522;-74
2022/10/26 09:52:21;;;;;;;;;;;;;;;16.42;65.66;101073.78;5305679;32;34314;-88
2022/10/26 09:55:23;;;;;;;;;;;;;;;17.24;63.15;101074.66;5301287;32;37559;-81
2022/10/26 09:58:29;;;;;;;;;;;;;;;17.73;61.34;101069.25;5305605;32;37310;-81
2022/10/26 10:01:35;;;;;;;;;;;;;;;17.10;62.89;101082.53;5321176;32;34305;-75
2022/10/26 10:04:45;;;;;;;;;;;;;;;17.01;64.70;101075.94;5288691;32;44473;-90
2022/10/26 10:07:47;;;;;;;;;;;;;;;17.35;64.48;101086.47;5300928;32;35694;-81
2022/10/26 10:11:02;;;;;;;;;;;;;;;17.59;63.59;101088.59;5322489;32;35482;-82
2022/10/26 10:14:08;;;;;;;;;;;;;;;18.19;61.52;101085.13;5306793;32;34317;-74
2022/10/26 10:17:20;;;;;;;;;;;;;;;19.33;57.82;101077.16;5308240;32;42944;-77
2022/10/26 10:20:25;;;;;;;;;;;;;;;18.41;59.51;101084.69;5301326;32;34248;-74
2022/10/26 10:23:31;;;;;;;;;;;;;;;17.11;64.79;101086.03;5307697;32;35398;-85
2022/10/26 10:26:37;;;;;;;;;;;;;;;18.00;62.25;101096.00;5296438;32;34836;-72
2022/10/26 10:29:42;;;;;;;;;;;;;;;17.45;63.91;101096.53;5293425;32;44465;-89
2022/10/26 10:32:44;;;;;;;;;;;;;;;18.37;61.15;101097.34;5329684;32;34758;-88
2022/10/26 10:35:47;;;;;;;;;;;;;;;17.85;62.58;101092.47;5311537;32;34169;-85
2022/10/26 10:38:50;;;;;;;;;;;;;;;17.15;65.74;101091.09;5318412;32;34172;-90
2022/10/26 10:41:52;;;;;;;;;;;;;;;16.96;67.54;101093.06;5303971;32;34137;-84
2022/10/26 10:44:54;;;;;;;;;;;;;;;16.48;69.33;101082.28;5293105;32;34499;-77
2022/10/26 10:48:11;;;;;;;;;;;;;;;16.42;69.95;101082.62;5320112;32;33970;-72
2022/10/26 10:51:16;;;;;;;;;;;;;;;16.36;70.34;101085.59;5303494;32;44632;-74
2022/10/26 10:54:28;;;;;;;;;;;;;;;18.08;63.49;101076.94;5323472;32;34226;-82
2022/10/26 10:57:40;;;;;;;;;;;;;;;18.47;61.33;101073.69;5307345;32;34406;-84
2022/10/26 11:00:43;;;;;;;;;;;;;;;18.46;62.09;101068.44;5301129;32;44920;-83
2022/10/26 11:03:51;;;;;;;;;;;;;;;18.61;61.73;101071.03;5318493;32;34808;-86
2022/10/26 11:06:53;;;;;;;;;;;;;;;19.30;58.80;101065.84;5305038;32;32142;-77
2022/10/26 11:09:55;;;;;;;;;;;;;;;19.59;58.67;101069.31;5305551;32;34558;-74
2022/10/26 11:12:58;;;;;;;;;;;;;;;18.32;62.91;101063.97;5297131;32;34115;-77
2022/10/26 11:16:04;;;;;;;;;;;;;;;19.30;58.27;101065.84;5321350;32;35179;-79
2022/10/26 11:19:16;;;;;;;;;;;;;;;18.56;61.14;101066.94;5303078;32;34637;-74
2022/10/26 11:22:23;;;;;;;;;;;;;;;18.36;62.15;101061.03;5306107;32;44602;-69
2022/10/26 11:25:29;;;;;;;;;;;;;;;18.47;61.96;101062.16;5301884;32;38825;-92
2022/10/26 11:28:34;;;;;;;;;;;;;;;18.13;63.36;101066.88;5287822;32;34110;-77
2022/10/26 11:31:41;;;;;;;;;;;;;;;18.41;62.38;101061.59;5325837;32;35317;-83
2022/10/26 11:34:58;;;;;;;;;;;;;;;18.21;63.03;101056.63;5290724;32;44823;-84
2022/10/26 11:38:00;;;;;;;;;;;;;;;18.19;63.45;101050.56;5302430;32;34013;-73
2022/10/26 11:41:04;;;;;;;;;;;;;;;17.39;66.65;101061.44;5320663;32;34311;-78
2022/10/26 11:44:41;;;;;;;;;;;;;;;18.14;64.50;101049.97;5306132;32;44684;-75
2022/10/26 11:47:45;;;;;;;;;;;;;;;18.98;60.78;101039.44;5289381;32;44524;-82
2022/10/26 11:50:49;;;;;;;;;;;;;;;18.68;62.13;101042.25;5290822;32;34093;-75
2022/10/26 11:53:51;;;;;;;;;;;;;;;17.93;64.34;101051.25;5294694;32;35420;-85
2022/10/26 11:56:54;;;;;;;;;;;;;;;18.40;62.68;101048.38;5319634;32;34482;-76
2022/10/26 11:59:57;;;;;;;;;;;;;;;18.18;64.49;101048.84;5304232;32;37034;-78
2022/10/26 12:03:08;;;;;;;;;;;;;;;18.37;63.79;101041.47;5291006;32;34282;-78
2022/10/26 12:06:10;;;;;;;;;;;;;;;18.78;62.47;101039.88;5301083;32;44042;-78
2022/10/26 12:09:15;;;;;;;;;;;;;;;19.64;59.20;101040.50;5316003;32;35516;-77
2022/10/26 12:12:55;;;;;;;;;;;;;;;19.61;58.83;101038.06;5310767;32;34347;-80
2022/10/26 12:16:06;;;;;;;;;;;;;;;18.99;60.64;101048.28;5266271;33;34455;-77
2022/10/26 12:19:31;;;;;;;;;;;;;;;18.38;64.04;101042.31;5261964;32;44912;-78
2022/10/26 12:22:33;;;;;;;;;;;;;;;18.44;63.71;101041.09;5301920;32;35381;-82
2022/10/26 12:25:35;;;;;;;;;;;;;;;19.00;61.55;101034.91;5278163;32;35343;-79
2022/10/26 12:28:39;;;;;;;;;;;;;;;19.01;62.09;101041.09;5309516;32;33360;-80
2022/10/26 12:31:42;;;;;;;;;;;;;;;19.63;59.58;101037.00;5308134;32;44371;-85
2022/10/26 12:34:44;;;;;;;;;;;;;;;20.42;56.80;101033.37;5309290;32;34506;-86
2022/10/26 12:37:46;;;;;;;;;;;;;;;19.80;58.59;101043.87;5303770;32;34243;-79
2022/10/26 12:40:48;;;;;;;;;;;;;;;20.35;57.15;101031.22;5317420;32;34243;-79
2022/10/26 12:43:54;;;;;;;;;;;;;;;19.99;58.60;101033.66;5307678;32;34867;-79
2022/10/26 12:46:56;;;;;;;;;;;;;;;20.65;55.85;101018.41;5302145;32;34192;-75
2022/10/26 12:50:04;;;;;;;;;;;;;;;20.26;56.64;101027.37;5321334;32;35804;-73
2022/10/26 12:53:09;;;;;;;;;;;;;;;20.15;57.32;101022.78;5309271;32;34296;-76
2022/10/26 12:56:11;;;;;;;;;;;;;;;20.24;57.21;101021.31;5320732;32;44580;-78
2022/10/26 12:59:16;;;;;;;;;;;;;;;19.50;59.52;101020.06;5282658;32;34656;-86
2022/10/26 13:02:18;;;;;;;;;;;;;;;19.38;59.86;101024.41;5316038;32;35680;-81
2022/10/26 13:05:28;;;;;;;;;;;;;;;19.54;59.06;101023.41;5306975;32;34354;-78
2022/10/26 13:08:38;;;;;;;;;;;;;;;20.37;56.75;101022.16;5277679;32;34057;-88
2022/10/26 13:11:43;;;;;;;;;;;;;;;19.71;58.32;101021.34;5295857;32;44305;-84
2022/10/26 13:14:54;;;;;;;;;;;;;;;20.45;57.05;101016.31;5308100;32;34376;-76
2022/10/26 13:18:05;;;;;;;;;;;;;;;21.40;53.71;101021.00;5317444;32;34178;-78
2022/10/26 13:21:15;;;;;;;;;;;;;;;20.18;57.47;101016.41;5312103;32;35178;-79
2022/10/26 13:24:20;;;;;;;;;;;;;;;20.62;56.05;101021.31;5293916;32;34529;-75
2022/10/26 13:27:24;;;;;;;;;;;;;;;20.95;55.32;101030.56;5306051;32;34400;-83
2022/10/26 13:30:32;;;;;;;;;;;;;;;20.45;57.14;101019.84;5318870;32;34324;-79
2022/10/26 13:33:37;;;;;;;;;;;;;;;21.08;54.49;101021.53;5323780;32;34377;-77
2022/10/26 13:36:48;;;;;;;;;;;;;;;20.87;55.64;101028.44;5302004;32;45940;-82
2022/10/26 13:39:54;;;;;;;;;;;;;;;20.88;55.32;101023.94;5311811;32;35290;-81
2022/10/26 13:42:57;;;;;;;;;;;;;;;20.95;55.00;101026.06;5319770;32;34290;-78
2022/10/26 13:46:00;;;;;;;;;;;;;;;20.62;56.05;101026.66;5292373;32;33663;-81
2022/10/26 13:49:07;;;;;;;;;;;;;;;20.48;56.42;101033.00;5313255;32;34309;-80
2022/10/26 13:52:16;;;;;;;;;;;;;;;20.42;56.43;101027.19;5309299;32;44818;-75
2022/10/26 13:55:31;;;;;;;;;;;;;;;19.61;59.60;101035.41;5321349;32;35047;-90
2022/10/26 13:58:39;;;;;;;;;;;;;;;20.08;58.30;101029.50;5296241;32;904354;-90
2022/10/26 14:01:41;;;;;;;;;;;;;;;20.86;55.72;101026.72;5307541;32;44302;-71
2022/10/26 14:04:59;;;;;;;;;;;;;;;20.13;57.84;101018.53;5324296;32;34338;-73
2022/10/26 14:08:01;;;;;;;;;;;;;;;20.63;56.28;101022.19;5295348;32;34288;-75
2022/10/26 14:11:03;;;;;;;;;;;;;;;20.10;58.04;101032.09;5320947;32;35151;-73
2022/10/26 14:14:05;;;;;;;;;;;;;;;20.35;56.72;101034.78;5315002;32;35693;-80
2022/10/26 14:17:13;;;;;;;;;;;;;;;20.28;57.55;101038.81;5304685;32;35628;-76
2022/10/26 14:20:19;;;;;;;;;;;;;;;21.01;55.45;101038.13;5292149;32;43210;-84
2022/10/26 14:23:44;;;;;;;;;;;;;;;20.89;55.70;101033.66;5307343;32;35886;-83
2022/10/26 14:26:46;;;;;;;;;;;;;;;20.35;57.29;101033.87;5281209;32;44489;-88
2022/10/26 14:29:51;;;;;;;;;;;;;;;20.28;57.94;101036.13;5295960;32;35537;-83
2022/10/26 14:33:17;;;;;;;;;;;;;;;19.34;60.59;101038.03;5280515;32;45047;-77
2022/10/26 14:36:20;;;;;;;;;;;;;;;19.13;61.89;101034.97;5310370;32;35704;-77
2022/10/26 14:39:27;;;;;;;;;;;;;;;19.80;60.31;101043.03;5295181;32;33352;-79
2022/10/26 14:42:30;;;;;;;;;;;;;;;19.77;59.98;101029.87;5309342;32;34329;-77
2022/10/26 14:45:36;;;;;;;;;;;;;;;20.60;57.29;101027.72;5291574;32;34216;-78
2022/10/26 14:48:54;;;;;;;;;;;;;;;20.53;57.37;101030.81;5291346;32;34533;-77
2022/10/26 14:51:57;;;;;;;;;;;;;;;19.40;61.20;101038.50;5315204;32;38130;-77
2022/10/26 14:55:02;;;;;;;;;;;;;;;19.78;60.09;101032.47;5289869;32;36123;-76
2022/10/26 14:58:13;;;;;;;;;;;;;;;19.22;61.75;101042.34;5329272;32;34416;-77
2022/10/26 15:01:21;;;;;;;;;;;;;;;20.11;59.14;101041.81;5320386;32;45828;-78
2022/10/26 15:04:28;;;;;;;;;;;;;;;20.25;58.22;101041.69;5304404;32;34375;-78
2022/10/26 15:07:34;;;;;;;;;;;;;;;19.47;61.09;101041.63;5317857;32;34868;-78
2022/10/26 15:10:36;;;;;;;;;;;;;;;19.62;60.35;101039.78;5303826;32;34599;-79
2022/10/26 15:13:39;;;;;;;;;;;;;;;20.67;56.94;101032.50;5323297;32;34308;-77
2022/10/26 15:16:49;;;;;;;;;;;;;;;20.88;56.06;101035.50;5312648;32;44761;-78
2022/10/26 15:19:51;;;;;;;;;;;;;;;20.70;56.42;101036.81;5320072;32;35052;-76
2022/10/26 15:22:53;;;;;;;;;;;;;;;20.38;57.42;101037.22;5311093;33;34984;-77
2022/10/26 15:25:56;;;;;;;;;;;;;;;20.07;58.58;101048.31;5293515;32;34360;-78
2022/10/26 15:28:58;;;;;;;;;;;;;;;19.65;60.52;101048.44;5319146;32;34696;-77
2022/10/26 15:32:00;;;;;;;;;;;;;;;20.39;57.67;101049.59;5309676;32;34152;-79
2022/10/26 15:35:21;;;;;;;;;;;;;;;20.53;57.06;101052.19;5320592;32;34672;-78
2022/10/26 15:38:23;;;;;;;;;;;;;;;20.53;56.80;101054.84;5306923;32;34958;-80
2022/10/26 15:41:31;;;;;;;;;;;;;;;20.22;58.02;101057.91;5315436;32;34530;-79
2022/10/26 15:44:33;;;;;;;;;;;;;;;20.33;57.67;101057.19;5306926;32;34746;-78
2022/10/26 15:47:34;;;;;;;;;;;;;;;20.37;57.42;101056.88;5306860;32;34982;-78
2022/10/26 15:50:36;;;;;;;;;;;;;;;20.23;58.14;101070.31;5323278;32;35538;-77